Time,TemperatureF,DewpointF,PressureIn,WindDirection,WindDirectionDegrees,WindSpeedMPH,WindSpeedGustMPH,Humidity,HourlyPrecipIn,Conditions,Clouds,dailyrainin,SoftwareType,DateUTC
2013-05-13 00:00:00,61.8,41.9,29.64,WNW,292,2.0,9.0,48,0.00,,,0.00,Weather View 32 v70,2013-05-13 04:00:00,
2013-05-13 00:01:00,61.8,41.9,29.64,WNW,292,2.0,9.0,48,0.00,,,0.00,Weather View 32 v70,2013-05-13 04:01:00,
2013-05-13 00:06:00,61.7,41.8,29.63,NW,315,3.0,9.0,48,0.00,,,0.00,Weather View 32 v70,2013-05-13 04:06:00,
2013-05-13 00:11:00,61.6,42.2,29.64,WNW,292,3.0,9.0,49,0.00,,,0.00,Weather View 32 v70,2013-05-13 04:11:00,
2013-05-13 00:16:00,61.6,42.2,29.64,WNW,292,4.0,9.0,49,0.00,,,0.00,Weather View 32 v70,2013-05-13 04:16:00,
2013-05-13 00:21:00,61.5,42.6,29.64,WNW,292,3.0,9.0,50,0.00,,,0.00,Weather View 32 v70,2013-05-13 04:21:00,
2013-05-13 00:26:00,61.3,42.5,29.64,WNW,292,3.0,9.0,50,0.00,,,0.00,Weather View 32 v70,2013-05-13 04:26:00,
2013-05-13 00:31:00,61.2,42.9,29.64,WNW,292,3.0,9.0,51,0.00,,,0.00,Weather View 32 v70,2013-05-13 04:31:00,
2013-05-13 00:36:00,60.9,42.6,29.64,WNW,292,3.0,7.0,51,0.00,,,0.00,Weather View 32 v70,2013-05-13 04:36:00,
2013-05-13 00:41:00,60.7,42.9,29.64,WNW,292,5.0,6.0,52,0.00,,,0.00,Weather View 32 v70,2013-05-13 04:41:00,
2013-05-13 00:47:00,60.5,43.2,29.64,NW,315,6.0,7.0,53,0.00,,,0.00,Weather View 32 v70,2013-05-13 04:47:00,
2013-05-13 00:52:00,60.3,43.5,29.64,NNW,337,4.0,7.0,54,0.00,,,0.00,Weather View 32 v70,2013-05-13 04:52:00,
2013-05-13 00:57:00,60.1,43.8,29.63,WNW,292,3.0,7.0,55,0.00,,,0.00,Weather View 32 v70,2013-05-13 04:57:00,
2013-05-13 01:02:00,59.8,43.6,29.63,NNW,337,4.0,8.0,55,0.00,,,0.00,Weather View 32 v70,2013-05-13 05:02:00,
2013-05-13 01:07:00,59.6,43.8,29.64,NW,315,2.0,8.0,56,0.00,,,0.00,Weather View 32 v70,2013-05-13 05:07:00,
2013-05-13 01:12:00,59.3,44.0,29.63,NW,315,3.0,8.0,57,0.00,,,0.00,Weather View 32 v70,2013-05-13 05:12:00,
2013-05-13 01:17:00,58.9,44.1,29.63,NW,315,4.0,8.0,58,0.00,,,0.00,Weather View 32 v70,2013-05-13 05:17:00,
2013-05-13 01:22:00,59.0,44.7,29.63,WNW,292,5.0,8.0,59,0.00,,,0.00,Weather View 32 v70,2013-05-13 05:22:00,
2013-05-13 01:27:00,59.1,44.8,29.64,NW,315,1.0,8.0,59,0.00,,,0.00,Weather View 32 v70,2013-05-13 05:27:00,
2013-05-13 01:32:00,58.9,45.0,29.64,NW,315,1.0,8.0,60,0.00,,,0.00,Weather View 32 v70,2013-05-13 05:32:00,
2013-05-13 01:37:00,58.6,45.2,29.64,NW,315,2.0,8.0,61,0.00,,,0.00,Weather View 32 v70,2013-05-13 05:37:00,
2013-05-13 01:42:00,58.4,46.2,29.64,NW,315,3.0,8.0,64,0.00,,,0.00,Weather View 32 v70,2013-05-13 05:42:00,
2013-05-13 01:47:00,58.2,46.9,29.64,NW,315,2.0,8.0,66,0.00,,,0.00,Weather View 32 v70,2013-05-13 05:47:00,
2013-05-13 01:52:00,57.9,47.0,29.64,NW,315,2.0,8.0,67,0.00,,,0.00,Weather View 32 v70,2013-05-13 05:52:00,
2013-05-13 01:57:00,57.7,48.0,29.64,NW,315,2.0,8.0,70,0.00,,,0.00,Weather View 32 v70,2013-05-13 05:57:00,
2013-05-13 02:02:00,57.4,47.7,29.64,NW,315,2.0,8.0,70,0.00,,,0.00,Weather View 32 v70,2013-05-13 06:02:00,
2013-05-13 02:07:00,57.3,47.2,29.63,NW,315,2.0,8.0,69,0.00,,,0.00,Weather View 32 v70,2013-05-13 06:07:00,
2013-05-13 02:12:00,57.2,46.7,29.63,NW,315,2.0,8.0,68,0.00,,,0.00,Weather View 32 v70,2013-05-13 06:12:00,
2013-05-13 02:17:00,57.1,46.2,29.63,NW,315,2.0,8.0,67,0.00,,,0.00,Weather View 32 v70,2013-05-13 06:17:00,
2013-05-13 02:22:00,57.1,45.8,29.64,NW,315,4.0,8.0,66,0.00,,,0.00,Weather View 32 v70,2013-05-13 06:22:00,
2013-05-13 02:27:00,57.1,45.0,29.63,NNW,337,4.0,6.0,64,0.00,,,0.00,Weather View 32 v70,2013-05-13 06:27:00,
2013-05-13 02:32:00,57.3,44.8,29.64,North,360,2.0,6.0,63,0.00,,,0.00,Weather View 32 v70,2013-05-13 06:32:00,
2013-05-13 02:37:00,57.8,43.5,29.64,NNW,337,2.0,10.0,59,0.00,,,0.00,Weather View 32 v70,2013-05-13 06:37:00,
2013-05-13 02:42:00,58.3,43.1,29.64,NE,45,5.0,10.0,57,0.00,,,0.00,Weather View 32 v70,2013-05-13 06:42:00,
2013-05-13 02:47:00,58.6,43.4,29.64,North,360,4.0,10.0,57,0.00,,,0.00,Weather View 32 v70,2013-05-13 06:47:00,
2013-05-13 02:52:00,58.5,43.7,29.64,NW,315,1.0,10.0,58,0.00,,,0.00,Weather View 32 v70,2013-05-13 06:52:00,
2013-05-13 02:57:00,58.2,43.9,29.64,NNE,22,4.0,10.0,59,0.00,,,0.00,Weather View 32 v70,2013-05-13 06:57:00,
2013-05-13 03:02:00,57.9,43.2,29.64,North,360,4.0,10.0,58,0.00,,,0.00,Weather View 32 v70,2013-05-13 07:02:00,
2013-05-13 03:07:00,57.8,43.5,29.64,NNW,337,3.0,10.0,59,0.00,,,0.00,Weather View 32 v70,2013-05-13 07:07:00,
2013-05-13 03:12:00,57.6,43.8,29.64,North,360,2.0,10.0,60,0.00,,,0.00,Weather View 32 v70,2013-05-13 07:12:00,
2013-05-13 03:17:00,57.4,44.0,29.64,North,360,4.0,10.0,61,0.00,,,0.00,Weather View 32 v70,2013-05-13 07:17:00,
2013-05-13 03:22:00,57.4,43.6,29.64,North,360,5.0,10.0,60,0.00,,,0.00,Weather View 32 v70,2013-05-13 07:22:00,
2013-05-13 03:27:00,57.3,43.5,29.65,NNW,337,2.0,10.0,60,0.00,,,0.00,Weather View 32 v70,2013-05-13 07:27:00,
2013-05-13 03:32:00,57.4,43.2,29.65,NNW,337,6.0,10.0,59,0.00,,,0.00,Weather View 32 v70,2013-05-13 07:32:00,
2013-05-13 03:37:00,57.4,42.7,29.65,NNE,22,5.0,9.0,58,0.00,,,0.00,Weather View 32 v70,2013-05-13 07:37:00,
2013-05-13 03:42:00,57.3,43.1,29.64,NNW,337,5.0,9.0,59,0.00,,,0.00,Weather View 32 v70,2013-05-13 07:42:00,
2013-05-13 03:47:00,57.1,42.9,29.65,NNE,22,4.0,9.0,59,0.00,,,0.00,Weather View 32 v70,2013-05-13 07:47:00,
2013-05-13 03:52:00,56.9,43.1,29.65,North,360,4.0,9.0,60,0.00,,,0.00,Weather View 32 v70,2013-05-13 07:52:00,
2013-05-13 03:57:00,56.8,43.0,29.65,NE,45,2.0,9.0,60,0.00,,,0.00,Weather View 32 v70,2013-05-13 07:57:00,
2013-05-13 04:02:00,56.7,43.4,29.65,NE,45,5.0,9.0,61,0.00,,,0.00,Weather View 32 v70,2013-05-13 08:02:00,
2013-05-13 04:08:00,56.6,42.8,29.65,NE,45,2.0,9.0,60,0.00,,,0.00,Weather View 32 v70,2013-05-13 08:08:00,
2013-05-13 04:13:00,56.5,43.2,29.65,NNE,22,2.0,9.0,61,0.00,,,0.00,Weather View 32 v70,2013-05-13 08:13:00,
2013-05-13 04:18:00,56.3,43.0,29.65,NNE,22,2.0,9.0,61,0.00,,,0.00,Weather View 32 v70,2013-05-13 08:18:00,
2013-05-13 04:23:00,56.2,42.9,29.65,NNE,22,2.0,9.0,61,0.00,,,0.00,Weather View 32 v70,2013-05-13 08:23:00,
2013-05-13 04:28:00,56.1,42.8,29.65,NNE,22,3.0,9.0,61,0.00,,,0.00,Weather View 32 v70,2013-05-13 08:28:00,
2013-05-13 04:33:00,55.9,42.6,29.65,NE,45,2.0,9.0,61,0.00,,,0.00,Weather View 32 v70,2013-05-13 08:33:00,
2013-05-13 04:38:00,55.9,42.6,29.65,NE,45,4.0,9.0,61,0.00,,,0.00,Weather View 32 v70,2013-05-13 08:38:00,
2013-05-13 04:43:00,55.7,42.4,29.65,North,360,2.0,9.0,61,0.00,,,0.00,Weather View 32 v70,2013-05-13 08:43:00,
2013-05-13 04:48:00,55.6,42.8,29.66,North,360,4.0,9.0,62,0.00,,,0.00,Weather View 32 v70,2013-05-13 08:48:00,
2013-05-13 04:53:00,55.6,43.2,29.66,NE,45,5.0,9.0,63,0.00,,,0.00,Weather View 32 v70,2013-05-13 08:53:00,
2013-05-13 04:58:00,55.4,43.0,29.66,NE,45,3.0,9.0,63,0.00,,,0.00,Weather View 32 v70,2013-05-13 08:58:00,
2013-05-13 05:03:00,55.2,42.8,29.66,North,360,2.0,9.0,63,0.00,,,0.00,Weather View 32 v70,2013-05-13 09:03:00,
2013-05-13 05:08:00,55.1,43.1,29.66,NE,45,6.0,9.0,64,0.00,,,0.00,Weather View 32 v70,2013-05-13 09:08:00,
2013-05-13 05:13:00,54.8,42.8,29.67,North,360,2.0,9.0,64,0.00,,,0.00,Weather View 32 v70,2013-05-13 09:13:00,
2013-05-13 05:18:00,54.7,43.1,29.67,North,360,3.0,9.0,65,0.00,,,0.00,Weather View 32 v70,2013-05-13 09:18:00,
2013-05-13 05:23:00,54.6,43.0,29.67,NNE,22,6.0,9.0,65,0.00,,,0.00,Weather View 32 v70,2013-05-13 09:23:00,
2013-05-13 05:28:00,54.5,43.4,29.67,NNE,22,2.0,9.0,66,0.00,,,0.00,Weather View 32 v70,2013-05-13 09:28:00,
2013-05-13 05:33:00,54.3,43.2,29.67,North,360,2.0,9.0,66,0.00,,,0.00,Weather View 32 v70,2013-05-13 09:33:00,
2013-05-13 05:38:00,54.1,43.4,29.67,NNE,22,6.0,9.0,67,0.00,,,0.00,Weather View 32 v70,2013-05-13 09:38:00,
2013-05-13 05:43:00,53.9,43.6,29.67,NNE,22,5.0,8.0,68,0.00,,,0.00,Weather View 32 v70,2013-05-13 09:43:00,
2013-05-13 05:48:00,53.8,43.8,29.67,NE,45,1.0,8.0,69,0.00,,,0.00,Weather View 32 v70,2013-05-13 09:48:00,
2013-05-13 05:53:00,53.7,44.1,29.67,North,360,5.0,8.0,70,0.00,,,0.00,Weather View 32 v70,2013-05-13 09:53:00,
2013-05-13 05:58:00,53.7,43.8,29.67,NNE,22,3.0,8.0,69,0.00,,,0.00,Weather View 32 v70,2013-05-13 09:58:00,
2013-05-13 06:03:00,53.8,43.5,29.68,NE,45,3.0,8.0,68,0.00,,,0.00,Weather View 32 v70,2013-05-13 10:03:00,
2013-05-13 06:08:00,53.9,42.8,29.68,NNE,22,1.0,8.0,66,0.00,,,0.00,Weather View 32 v70,2013-05-13 10:08:00,
2013-05-13 06:13:00,53.9,42.8,29.68,North,360,2.0,8.0,66,0.00,,,0.00,Weather View 32 v70,2013-05-13 10:13:00,
2013-05-13 06:18:00,53.9,43.9,29.68,North,360,2.0,8.0,69,0.00,,,0.00,Weather View 32 v70,2013-05-13 10:18:00,
2013-05-13 06:23:00,53.6,44.0,29.68,North,360,1.0,8.0,70,0.00,,,0.00,Weather View 32 v70,2013-05-13 10:23:00,
2013-05-13 06:28:00,53.6,43.7,29.69,North,360,3.0,8.0,69,0.00,,,0.00,Weather View 32 v70,2013-05-13 10:28:00,
2013-05-13 06:33:00,53.6,43.7,29.68,NNE,22,2.0,8.0,69,0.00,,,0.00,Weather View 32 v70,2013-05-13 10:33:00,
2013-05-13 06:38:00,53.6,43.7,29.69,NNW,337,2.0,8.0,69,0.00,,,0.00,Weather View 32 v70,2013-05-13 10:38:00,
2013-05-13 06:44:00,53.6,44.0,29.69,North,360,4.0,8.0,70,0.00,,,0.00,Weather View 32 v70,2013-05-13 10:44:00,
2013-05-13 06:49:00,53.6,44.0,29.69,NNW,337,3.0,8.0,70,0.00,,,0.00,Weather View 32 v70,2013-05-13 10:49:00,
2013-05-13 06:54:00,53.7,43.8,29.69,North,360,4.0,8.0,69,0.00,,,0.00,Weather View 32 v70,2013-05-13 10:54:00,
2013-05-13 06:59:00,53.8,43.5,29.69,NNE,22,3.0,8.0,68,0.00,,,0.00,Weather View 32 v70,2013-05-13 10:59:00,
2013-05-13 07:04:00,53.9,43.6,29.70,NNW,337,4.0,8.0,68,0.00,,,0.00,Weather View 32 v70,2013-05-13 11:04:00,
2013-05-13 07:09:00,53.9,43.6,29.70,NW,315,1.0,8.0,68,0.00,,,0.00,Weather View 32 v70,2013-05-13 11:09:00,
2013-05-13 07:14:00,53.9,43.6,29.70,NNE,22,4.0,8.0,68,0.00,,,0.00,Weather View 32 v70,2013-05-13 11:14:00,
2013-05-13 07:19:00,54.0,43.7,29.70,North,360,2.0,8.0,68,0.00,,,0.00,Weather View 32 v70,2013-05-13 11:19:00,
2013-05-13 07:24:00,54.1,43.8,29.70,NE,45,5.0,8.0,68,0.00,,,0.00,Weather View 32 v70,2013-05-13 11:24:00,
2013-05-13 07:29:00,54.1,43.8,29.71,North,360,4.0,8.0,68,0.00,,,0.00,Weather View 32 v70,2013-05-13 11:29:00,
2013-05-13 07:34:00,54.3,43.9,29.71,North,360,4.0,8.0,68,0.00,,,0.00,Weather View 32 v70,2013-05-13 11:34:00,
2013-05-13 07:39:00,54.6,43.8,29.71,NNE,22,2.0,8.0,67,0.00,,,0.00,Weather View 32 v70,2013-05-13 11:39:00,
2013-05-13 07:44:00,55.1,43.9,29.71,NNE,22,4.0,8.0,66,0.00,,,0.00,Weather View 32 v70,2013-05-13 11:44:00,
2013-05-13 07:49:00,55.7,43.7,29.71,North,360,5.0,8.0,64,0.00,,,0.00,Weather View 32 v70,2013-05-13 11:49:00,
2013-05-13 07:54:00,55.9,43.0,29.72,North,360,3.0,11.0,62,0.00,,,0.00,Weather View 32 v70,2013-05-13 11:54:00,
2013-05-13 07:59:00,56.1,43.2,29.72,North,360,4.0,11.0,62,0.00,,,0.00,Weather View 32 v70,2013-05-13 11:59:00,
2013-05-13 08:04:00,56.3,43.0,29.72,NNE,22,4.0,11.0,61,0.00,,,0.00,Weather View 32 v70,2013-05-13 12:04:00,
2013-05-13 08:09:00,56.5,41.9,29.73,NE,45,11.0,14.0,58,0.00,,,0.00,Weather View 32 v70,2013-05-13 12:09:00,
2013-05-13 08:14:00,56.6,41.5,29.73,North,360,4.0,14.0,57,0.00,,,0.00,Weather View 32 v70,2013-05-13 12:14:00,
2013-05-13 08:19:00,56.9,41.3,29.73,NE,45,4.0,14.0,56,0.00,,,0.00,Weather View 32 v70,2013-05-13 12:19:00,
2013-05-13 08:24:00,56.9,41.3,29.73,NW,315,1.0,14.0,56,0.00,,,0.00,Weather View 32 v70,2013-05-13 12:24:00,
2013-05-13 08:29:00,56.9,40.9,29.73,NNE,22,6.0,14.0,55,0.00,,,0.00,Weather View 32 v70,2013-05-13 12:29:00,
2013-05-13 08:34:00,56.9,41.3,29.74,NNW,337,2.0,14.0,56,0.00,,,0.00,Weather View 32 v70,2013-05-13 12:34:00,
2013-05-13 08:39:00,56.9,41.8,29.74,NNE,22,7.0,14.0,57,0.00,,,0.00,Weather View 32 v70,2013-05-13 12:39:00,
2013-05-13 08:44:00,56.9,41.3,29.74,North,360,2.0,14.0,56,0.00,,,0.00,Weather View 32 v70,2013-05-13 12:44:00,
2013-05-13 08:49:00,57.2,42.1,29.74,NNE,22,3.0,14.0,57,0.00,,,0.00,Weather View 32 v70,2013-05-13 12:49:00,
2013-05-13 08:54:00,57.6,42.0,29.75,NNE,22,6.0,14.0,56,0.00,,,0.00,Weather View 32 v70,2013-05-13 12:54:00,
2013-05-13 08:59:00,57.7,42.1,29.75,NE,45,8.0,14.0,56,0.00,,,0.00,Weather View 32 v70,2013-05-13 12:59:00,
2013-05-13 09:04:00,57.7,43.0,29.75,NE,45,4.0,14.0,58,0.00,,,0.00,Weather View 32 v70,2013-05-13 13:04:00,
2013-05-13 09:10:00,57.7,42.5,29.75,NNE,22,5.0,14.0,57,0.00,,,0.00,Weather View 32 v70,2013-05-13 13:10:00,
2013-05-13 09:15:00,58.1,42.9,29.75,NE,45,4.0,12.0,57,0.00,,,0.00,Weather View 32 v70,2013-05-13 13:15:00,
2013-05-13 09:20:00,57.9,41.3,29.75,NE,45,5.0,12.0,54,0.00,,,0.00,Weather View 32 v70,2013-05-13 13:20:00,
2013-05-13 09:33:00,59.1,42.4,29.76,NE,45,9.0,15.0,54,0.00,,,0.00,Weather View 32 v70,2013-05-13 13:33:00,
2013-05-13 09:39:00,59.3,41.6,29.75,NE,45,7.0,15.0,52,0.00,,,0.00,Weather View 32 v70,2013-05-13 13:39:00,
2013-05-13 09:44:00,59.6,41.4,29.75,ENE,67,9.0,15.0,51,0.00,,,0.00,Weather View 32 v70,2013-05-13 13:44:00,
2013-05-13 09:50:00,59.8,41.1,29.76,ENE,67,6.0,15.0,50,0.00,,,0.00,Weather View 32 v70,2013-05-13 13:50:00,
2013-05-13 10:04:00,60.6,39.7,29.76,ENE,67,12.0,15.0,46,0.00,,,0.00,Weather View 32 v70,2013-05-13 14:04:00,
2013-05-13 10:09:00,60.8,39.8,29.76,NE,45,6.0,15.0,46,0.00,,,0.00,Weather View 32 v70,2013-05-13 14:09:00,
2013-05-13 10:14:00,61.5,39.3,29.76,NE,45,6.0,15.0,44,0.00,,,0.00,Weather View 32 v70,2013-05-13 14:14:00,
2013-05-13 10:19:00,61.9,39.7,29.76,NE,45,10.0,18.0,44,0.00,,,0.00,Weather View 32 v70,2013-05-13 14:19:00,
2013-05-13 10:24:00,62.3,38.2,29.76,NE,45,17.0,18.0,41,0.00,,,0.00,Weather View 32 v70,2013-05-13 14:24:00,
2013-05-13 10:29:00,62.6,38.5,29.77,ENE,67,14.0,18.0,41,0.00,,,0.00,Weather View 32 v70,2013-05-13 14:29:00,
2013-05-13 10:34:00,62.7,38.6,29.77,ENE,67,8.0,18.0,41,0.00,,,0.00,Weather View 32 v70,2013-05-13 14:34:00,
2013-05-13 10:39:00,63.3,37.9,29.76,ENE,67,8.0,18.0,39,0.00,,,0.00,Weather View 32 v70,2013-05-13 14:39:00,
2013-05-13 10:44:00,63.1,37.0,29.77,NE,45,10.0,18.0,38,0.00,,,0.00,Weather View 32 v70,2013-05-13 14:44:00,
2013-05-13 10:49:00,62.9,36.2,29.77,NE,45,8.0,22.0,37,0.00,,,0.00,Weather View 32 v70,2013-05-13 14:49:00,
2013-05-13 10:54:00,63.7,36.9,29.77,NE,45,8.0,22.0,37,0.00,,,0.00,Weather View 32 v70,2013-05-13 14:54:00,
2013-05-13 10:59:00,63.9,36.4,29.77,NE,45,9.0,22.0,36,0.00,,,0.00,Weather View 32 v70,2013-05-13 14:59:00,
2013-05-13 11:05:00,64.1,35.1,29.77,NE,45,9.0,22.0,34,0.00,,,0.00,Weather View 32 v70,2013-05-13 15:05:00,
2013-05-13 11:10:00,64.5,35.4,29.77,North,360,7.0,22.0,34,0.00,,,0.00,Weather View 32 v70,2013-05-13 15:10:00,
2013-05-13 11:15:00,64.2,37.3,29.77,East,90,9.0,22.0,37,0.00,,,0.00,Weather View 32 v70,2013-05-13 15:15:00,
2013-05-13 11:20:00,64.6,37.0,29.77,North,360,2.0,22.0,36,0.00,,,0.00,Weather View 32 v70,2013-05-13 15:20:00,
2013-05-13 11:25:00,65.4,36.2,29.77,North,360,5.0,22.0,34,0.00,,,0.00,Weather View 32 v70,2013-05-13 15:25:00,
2013-05-13 11:30:00,65.8,35.8,29.77,East,90,12.0,22.0,33,0.00,,,0.00,Weather View 32 v70,2013-05-13 15:30:00,
2013-05-13 11:35:00,64.7,35.6,29.76,East,90,12.0,22.0,34,0.00,,,0.00,Weather View 32 v70,2013-05-13 15:35:00,
2013-05-13 11:40:00,64.5,35.4,29.77,North,360,6.0,22.0,34,0.00,,,0.00,Weather View 32 v70,2013-05-13 15:40:00,
2013-05-13 11:45:00,65.6,36.4,29.77,NE,45,9.0,22.0,34,0.00,,,0.00,Weather View 32 v70,2013-05-13 15:45:00,
2013-05-13 11:50:00,65.4,37.7,29.77,ENE,67,7.0,19.0,36,0.00,,,0.00,Weather View 32 v70,2013-05-13 15:50:00,
2013-05-13 11:55:00,65.6,36.4,29.77,NE,45,6.0,19.0,34,0.00,,,0.00,Weather View 32 v70,2013-05-13 15:55:00,
2013-05-13 12:00:00,65.7,38.0,29.77,North,360,5.0,19.0,36,0.00,,,0.00,Weather View 32 v70,2013-05-13 16:00:00,
2013-05-13 12:05:00,66.2,38.4,29.77,NW,315,4.0,19.0,36,0.00,,,0.00,Weather View 32 v70,2013-05-13 16:05:00,
2013-05-13 12:10:00,66.3,37.8,29.77,NNE,22,3.0,16.0,35,0.00,,,0.00,Weather View 32 v70,2013-05-13 16:10:00,
2013-05-13 12:15:00,66.6,36.5,29.77,North,360,6.0,16.0,33,0.00,,,0.00,Weather View 32 v70,2013-05-13 16:15:00,
2013-05-13 12:20:00,66.9,36.8,29.77,NE,45,7.0,16.0,33,0.00,,,0.00,Weather View 32 v70,2013-05-13 16:20:00,
2013-05-13 12:25:00,66.7,36.6,29.76,North,360,2.0,16.0,33,0.00,,,0.00,Weather View 32 v70,2013-05-13 16:25:00,
2013-05-13 12:30:00,67.2,36.3,29.76,NW,315,6.0,16.0,32,0.00,,,0.00,Weather View 32 v70,2013-05-13 16:30:00,
2013-05-13 12:35:00,67.3,39.4,29.76,WNW,292,6.0,16.0,36,0.00,,,0.00,Weather View 32 v70,2013-05-13 16:35:00,
2013-05-13 12:40:00,67.1,37.7,29.75,West,270,7.0,16.0,34,0.00,,,0.00,Weather View 32 v70,2013-05-13 16:40:00,
2013-05-13 12:45:00,67.9,36.9,29.75,North,360,6.0,16.0,32,0.00,,,0.00,Weather View 32 v70,2013-05-13 16:45:00,
2013-05-13 12:50:00,68.4,36.5,29.76,ENE,67,2.0,16.0,31,0.00,,,0.00,Weather View 32 v70,2013-05-13 16:50:00,
2013-05-13 12:55:00,68.3,38.0,29.75,West,270,3.0,16.0,33,0.00,,,0.00,Weather View 32 v70,2013-05-13 16:55:00,
2013-05-13 13:00:00,68.4,38.1,29.75,NW,315,4.0,16.0,33,0.00,,,0.00,Weather View 32 v70,2013-05-13 17:00:00,
2013-05-13 13:05:00,68.9,36.9,29.75,North,360,6.0,16.0,31,0.00,,,0.00,Weather View 32 v70,2013-05-13 17:05:00,
2013-05-13 13:10:00,69.1,37.1,29.75,North,360,6.0,16.0,31,0.00,,,0.00,Weather View 32 v70,2013-05-13 17:10:00,
2013-05-13 13:15:00,69.0,37.0,29.75,NNW,337,2.0,14.0,31,0.00,,,0.00,Weather View 32 v70,2013-05-13 17:15:00,
2013-05-13 13:20:00,68.4,38.1,29.75,NNW,337,7.0,14.0,33,0.00,,,0.00,Weather View 32 v70,2013-05-13 17:20:00,
2013-05-13 13:25:00,68.2,38.7,29.75,WNW,292,4.0,15.0,34,0.00,,,0.00,Weather View 32 v70,2013-05-13 17:25:00,
2013-05-13 13:30:00,68.9,37.8,29.74,NW,315,14.0,15.0,32,0.00,,,0.00,Weather View 32 v70,2013-05-13 17:30:00,
2013-05-13 13:35:00,68.7,36.8,29.74,NNW,337,3.0,16.0,31,0.00,,,0.00,Weather View 32 v70,2013-05-13 17:35:00,
2013-05-13 13:40:00,69.1,37.9,29.74,WNW,292,12.0,16.0,32,0.00,,,0.00,Weather View 32 v70,2013-05-13 17:40:00,
2013-05-13 13:46:00,69.6,38.4,29.74,West,270,6.0,16.0,32,0.00,,,0.00,Weather View 32 v70,2013-05-13 17:46:00,
2013-05-13 13:51:00,69.5,39.1,29.74,WNW,292,4.0,16.0,33,0.00,,,0.00,Weather View 32 v70,2013-05-13 17:51:00,
2013-05-13 13:56:00,69.2,37.2,29.74,NW,315,5.0,19.0,31,0.00,,,0.00,Weather View 32 v70,2013-05-13 17:56:00,
2013-05-13 14:01:00,69.1,38.7,29.73,West,270,5.0,19.0,33,0.00,,,0.00,Weather View 32 v70,2013-05-13 18:01:00,
2013-05-13 14:06:00,69.5,39.1,29.73,NW,315,4.0,19.0,33,0.00,,,0.00,Weather View 32 v70,2013-05-13 18:06:00,
2013-05-13 14:11:00,69.4,35.7,29.73,NW,315,5.0,20.0,29,0.00,,,0.00,Weather View 32 v70,2013-05-13 18:11:00,
2013-05-13 14:16:00,70.1,36.3,29.73,WNW,292,8.0,20.0,29,0.00,,,0.00,Weather View 32 v70,2013-05-13 18:16:00,
2013-05-13 14:21:00,70.0,37.1,29.73,NW,315,6.0,20.0,30,0.00,,,0.00,Weather View 32 v70,2013-05-13 18:21:00,
2013-05-13 14:26:00,69.8,37.7,29.73,NNW,337,6.0,20.0,31,0.00,,,0.00,Weather View 32 v70,2013-05-13 18:26:00,
2013-05-13 14:31:00,69.8,36.9,29.73,WSW,247,6.0,20.0,30,0.00,,,0.00,Weather View 32 v70,2013-05-13 18:31:00,
2013-05-13 14:36:00,69.5,36.6,29.73,WNW,292,2.0,20.0,30,0.00,,,0.00,Weather View 32 v70,2013-05-13 18:36:00,
2013-05-13 14:41:00,70.9,38.7,29.72,NW,315,6.0,20.0,31,0.00,,,0.00,Weather View 32 v70,2013-05-13 18:41:00,
2013-05-13 14:46:00,70.5,36.6,29.72,NW,315,5.0,20.0,29,0.00,,,0.00,Weather View 32 v70,2013-05-13 18:46:00,
2013-05-13 14:51:00,71.6,35.8,29.72,NW,315,4.0,20.0,27,0.00,,,0.00,Weather View 32 v70,2013-05-13 18:51:00,
2013-05-13 14:56:00,71.3,35.5,29.72,WNW,292,8.0,20.0,27,0.00,,,0.00,Weather View 32 v70,2013-05-13 18:56:00,
2013-05-13 15:01:00,70.9,37.0,29.72,WNW,292,7.0,20.0,29,0.00,,,0.00,Weather View 32 v70,2013-05-13 19:01:00,
2013-05-13 15:06:00,71.2,36.3,29.71,East,90,6.0,20.0,28,0.00,,,0.00,Weather View 32 v70,2013-05-13 19:06:00,
2013-05-13 15:11:00,71.4,36.5,29.71,WNW,292,12.0,20.0,28,0.00,,,0.00,Weather View 32 v70,2013-05-13 19:11:00,
2013-05-13 15:16:00,71.0,35.3,29.71,WNW,292,9.0,20.0,27,0.00,,,0.00,Weather View 32 v70,2013-05-13 19:16:00,
2013-05-13 15:21:00,71.4,35.6,29.71,WNW,292,7.0,20.0,27,0.00,,,0.00,Weather View 32 v70,2013-05-13 19:21:00,
2013-05-13 15:26:00,71.4,34.6,29.71,WNW,292,6.0,20.0,26,0.00,,,0.00,Weather View 32 v70,2013-05-13 19:26:00,
2013-05-13 15:31:00,71.9,35.1,29.71,NNW,337,5.0,20.0,26,0.00,,,0.00,Weather View 32 v70,2013-05-13 19:31:00,
2013-05-13 15:36:00,72.8,34.8,29.71,NNW,337,6.0,20.0,25,0.00,,,0.00,Weather View 32 v70,2013-05-13 19:36:00,
2013-05-13 15:41:00,72.8,36.8,29.70,NNW,337,8.0,20.0,27,0.00,,,0.00,Weather View 32 v70,2013-05-13 19:41:00,
2013-05-13 15:46:00,71.9,36.0,29.70,WNW,292,10.0,20.0,27,0.00,,,0.00,Weather View 32 v70,2013-05-13 19:46:00,
2013-05-13 15:51:00,72.2,36.3,29.70,NNW,337,2.0,20.0,27,0.00,,,0.00,Weather View 32 v70,2013-05-13 19:51:00,
2013-05-13 15:56:00,72.1,36.2,29.70,West,270,6.0,20.0,27,0.00,,,0.00,Weather View 32 v70,2013-05-13 19:56:00,
2013-05-13 16:01:00,72.3,36.4,29.69,WNW,292,7.0,20.0,27,0.00,,,0.00,Weather View 32 v70,2013-05-13 20:01:00,
2013-05-13 16:06:00,72.5,37.5,29.69,NW,315,8.0,20.0,28,0.00,,,0.00,Weather View 32 v70,2013-05-13 20:06:00,
2013-05-13 16:11:00,72.9,35.9,29.69,WNW,292,9.0,20.0,26,0.00,,,0.00,Weather View 32 v70,2013-05-13 20:11:00,
2013-05-13 16:16:00,73.0,35.0,29.69,North,360,5.0,17.0,25,0.00,,,0.00,Weather View 32 v70,2013-05-13 20:16:00,
2013-05-13 16:21:00,73.4,36.3,29.69,NW,315,6.0,17.0,26,0.00,,,0.00,Weather View 32 v70,2013-05-13 20:21:00,
2013-05-13 16:26:00,72.8,34.8,29.69,WNW,292,7.0,17.0,25,0.00,,,0.00,Weather View 32 v70,2013-05-13 20:26:00,
2013-05-13 16:31:00,72.9,35.9,29.69,NW,315,8.0,17.0,26,0.00,,,0.00,Weather View 32 v70,2013-05-13 20:31:00,
2013-05-13 16:36:00,72.0,34.2,29.69,WNW,292,7.0,17.0,25,0.00,,,0.00,Weather View 32 v70,2013-05-13 20:36:00,
2013-05-13 16:41:00,72.2,35.3,29.69,NW,315,7.0,17.0,26,0.00,,,0.00,Weather View 32 v70,2013-05-13 20:41:00,
2013-05-13 16:46:00,72.7,34.8,29.68,WNW,292,11.0,16.0,25,0.00,,,0.00,Weather View 32 v70,2013-05-13 20:46:00,
2013-05-13 16:51:00,71.7,33.9,29.68,WNW,292,10.0,16.0,25,0.00,,,0.00,Weather View 32 v70,2013-05-13 20:51:00,
2013-05-13 16:57:00,71.9,34.1,29.68,WNW,292,11.0,16.0,25,0.00,,,0.00,Weather View 32 v70,2013-05-13 20:57:00,
2013-05-13 17:02:00,71.9,34.1,29.68,WNW,292,12.0,17.0,25,0.00,,,0.00,Weather View 32 v70,2013-05-13 21:02:00,
2013-05-13 17:07:00,72.1,34.2,29.68,WNW,292,11.0,17.0,25,0.00,,,0.00,Weather View 32 v70,2013-05-13 21:07:00,
2013-05-13 17:12:00,72.4,35.5,29.68,NW,315,9.0,17.0,26,0.00,,,0.00,Weather View 32 v70,2013-05-13 21:12:00,
2013-05-13 17:17:00,71.9,34.1,29.68,WNW,292,7.0,17.0,25,0.00,,,0.00,Weather View 32 v70,2013-05-13 21:17:00,
2013-05-13 17:22:00,72.0,34.2,29.68,WNW,292,4.0,17.0,25,0.00,,,0.00,Weather View 32 v70,2013-05-13 21:22:00,
2013-05-13 17:27:00,72.2,35.3,29.68,WNW,292,6.0,17.0,26,0.00,,,0.00,Weather View 32 v70,2013-05-13 21:27:00,
2013-05-13 17:32:00,72.8,35.8,29.67,WNW,292,9.0,17.0,26,0.00,,,0.00,Weather View 32 v70,2013-05-13 21:32:00,
2013-05-13 17:37:00,72.3,34.4,29.67,WNW,292,10.0,17.0,25,0.00,,,0.00,Weather View 32 v70,2013-05-13 21:37:00,
2013-05-13 17:42:00,72.4,35.5,29.67,NNW,337,12.0,17.0,26,0.00,,,0.00,Weather View 32 v70,2013-05-13 21:42:00,
2013-05-13 17:47:00,72.7,34.8,29.67,WNW,292,7.0,17.0,25,0.00,,,0.00,Weather View 32 v70,2013-05-13 21:47:00,
2013-05-13 17:52:00,72.8,35.8,29.67,WNW,292,5.0,17.0,26,0.00,,,0.00,Weather View 32 v70,2013-05-13 21:52:00,
2013-05-13 17:57:00,72.3,35.4,29.67,NW,315,6.0,17.0,26,0.00,,,0.00,Weather View 32 v70,2013-05-13 21:57:00,
2013-05-13 18:02:00,72.5,35.6,29.67,NNW,337,9.0,15.0,26,0.00,,,0.00,Weather View 32 v70,2013-05-13 22:02:00,
2013-05-13 18:07:00,72.3,36.4,29.67,NNW,337,6.0,15.0,27,0.00,,,0.00,Weather View 32 v70,2013-05-13 22:07:00,
2013-05-13 18:12:00,71.6,35.8,29.67,WNW,292,6.0,14.0,27,0.00,,,0.00,Weather View 32 v70,2013-05-13 22:12:00,
2013-05-13 18:17:00,71.7,36.8,29.67,North,360,4.0,14.0,28,0.00,,,0.00,Weather View 32 v70,2013-05-13 22:17:00,
2013-05-13 18:22:00,71.6,35.8,29.67,NNW,337,9.0,14.0,27,0.00,,,0.00,Weather View 32 v70,2013-05-13 22:22:00,
2013-05-13 18:27:00,71.6,35.8,29.67,NW,315,5.0,14.0,27,0.00,,,0.00,Weather View 32 v70,2013-05-13 22:27:00,
2013-05-13 18:32:00,71.5,35.7,29.67,NW,315,5.0,14.0,27,0.00,,,0.00,Weather View 32 v70,2013-05-13 22:32:00,
2013-05-13 18:37:00,71.5,35.7,29.67,WNW,292,7.0,14.0,27,0.00,,,0.00,Weather View 32 v70,2013-05-13 22:37:00,
2013-05-13 18:42:00,72.0,36.1,29.67,NNW,337,5.0,14.0,27,0.00,,,0.00,Weather View 32 v70,2013-05-13 22:42:00,
2013-05-13 18:47:00,71.9,36.0,29.67,NW,315,6.0,14.0,27,0.00,,,0.00,Weather View 32 v70,2013-05-13 22:47:00,
2013-05-13 18:52:00,71.7,36.8,29.68,WNW,292,4.0,14.0,28,0.00,,,0.00,Weather View 32 v70,2013-05-13 22:52:00,
2013-05-13 18:57:00,71.6,35.8,29.68,NW,315,4.0,14.0,27,0.00,,,0.00,Weather View 32 v70,2013-05-13 22:57:00,
2013-05-13 19:02:00,72.1,36.2,29.68,NNW,337,4.0,12.0,27,0.00,,,0.00,Weather View 32 v70,2013-05-13 23:02:00,
2013-05-13 19:07:00,72.0,37.0,29.68,NNW,337,4.0,12.0,28,0.00,,,0.00,Weather View 32 v70,2013-05-13 23:07:00,
2013-05-13 19:12:00,71.7,36.8,29.68,NW,315,4.0,12.0,28,0.00,,,0.00,Weather View 32 v70,2013-05-13 23:12:00,
2013-05-13 19:17:00,71.9,36.9,29.69,NNW,337,2.0,12.0,28,0.00,,,0.00,Weather View 32 v70,2013-05-13 23:17:00,
2013-05-13 19:22:00,71.6,37.6,29.69,NW,315,2.0,12.0,29,0.00,,,0.00,Weather View 32 v70,2013-05-13 23:22:00,
2013-05-13 19:27:00,71.2,37.2,29.69,NW,315,4.0,12.0,29,0.00,,,0.00,Weather View 32 v70,2013-05-13 23:27:00,
2013-05-13 19:32:00,71.1,38.0,29.69,NW,315,2.0,12.0,30,0.00,,,0.00,Weather View 32 v70,2013-05-13 23:32:00,
2013-05-13 19:37:00,70.8,38.6,29.69,WNW,292,2.0,11.0,31,0.00,,,0.00,Weather View 32 v70,2013-05-13 23:37:00,
2013-05-13 19:42:00,70.1,38.0,29.69,West,270,4.0,11.0,31,0.00,,,0.00,Weather View 32 v70,2013-05-13 23:42:00,
2013-05-13 19:47:00,69.5,37.5,29.69,WNW,292,6.0,9.0,31,0.00,,,0.00,Weather View 32 v70,2013-05-13 23:47:00,
2013-05-13 19:52:00,69.2,37.2,29.69,NW,315,2.0,9.0,31,0.00,,,0.00,Weather View 32 v70,2013-05-13 23:52:00,
2013-05-13 19:57:00,68.8,37.7,29.70,NW,315,2.0,8.0,32,0.00,,,0.00,Weather View 32 v70,2013-05-13 23:57:00,
2013-05-13 20:02:00,68.4,38.1,29.70,NW,315,2.0,8.0,33,0.00,,,0.00,Weather View 32 v70,2013-05-14 00:02:00,
2013-05-13 20:07:00,67.7,37.5,29.70,WNW,292,4.0,8.0,33,0.00,,,0.00,Weather View 32 v70,2013-05-14 00:07:00,
2013-05-13 20:13:00,66.9,37.5,29.70,WNW,292,4.0,8.0,34,0.00,,,0.00,Weather View 32 v70,2013-05-14 00:13:00,
2013-05-13 20:18:00,66.4,37.1,29.71,WNW,292,2.0,8.0,34,0.00,,,0.00,Weather View 32 v70,2013-05-14 00:18:00,
2013-05-13 20:23:00,66.1,37.6,29.71,WNW,292,1.0,8.0,35,0.00,,,0.00,Weather View 32 v70,2013-05-14 00:23:00,
2013-05-13 20:28:00,65.7,37.2,29.71,WNW,292,2.0,7.0,35,0.00,,,0.00,Weather View 32 v70,2013-05-14 00:28:00,
2013-05-13 20:33:00,65.4,37.7,29.71,WNW,292,2.0,7.0,36,0.00,,,0.00,Weather View 32 v70,2013-05-14 00:33:00,
2013-05-13 20:38:00,65.0,38.0,29.71,WNW,292,2.0,7.0,37,0.00,,,0.00,Weather View 32 v70,2013-05-14 00:38:00,
2013-05-13 20:43:00,64.7,38.4,29.71,WNW,292,1.0,7.0,38,0.00,,,0.00,Weather View 32 v70,2013-05-14 00:43:00,
2013-05-13 20:48:00,64.2,39.3,29.71,WNW,292,3.0,6.0,40,0.00,,,0.00,Weather View 32 v70,2013-05-14 00:48:00,
2013-05-13 20:53:00,63.8,39.6,29.72,WNW,292,2.0,6.0,41,0.00,,,0.00,Weather View 32 v70,2013-05-14 00:53:00,
2013-05-13 20:58:00,63.5,39.9,29.72,WNW,292,2.0,6.0,42,0.00,,,0.00,Weather View 32 v70,2013-05-14 00:58:00,
2013-05-13 21:03:00,63.3,39.8,29.72,WNW,292,1.0,6.0,42,0.00,,,0.00,Weather View 32 v70,2013-05-14 01:03:00,
2013-05-13 21:08:00,63.5,38.7,29.72,WNW,292,1.0,6.0,40,0.00,,,0.00,Weather View 32 v70,2013-05-14 01:08:00,
2013-05-13 21:13:00,63.4,39.2,29.73,WNW,292,1.0,4.0,41,0.00,,,0.00,Weather View 32 v70,2013-05-14 01:13:00,
2013-05-13 21:18:00,63.1,39.0,29.73,WNW,292,1.0,4.0,41,0.00,,,0.00,Weather View 32 v70,2013-05-14 01:18:00,
2013-05-13 21:23:00,62.9,39.4,29.73,WNW,292,0.0,3.0,42,0.00,,,0.00,Weather View 32 v70,2013-05-14 01:23:00,
2013-05-13 21:28:00,62.1,39.9,29.73,WNW,292,0.0,3.0,44,0.00,,,0.00,Weather View 32 v70,2013-05-14 01:28:00,
2013-05-13 21:33:00,61.9,39.7,29.73,WNW,292,1.0,3.0,44,0.00,,,0.00,Weather View 32 v70,2013-05-14 01:33:00,
2013-05-13 21:38:00,62.1,39.9,29.73,WNW,292,1.0,3.0,44,0.00,,,0.00,Weather View 32 v70,2013-05-14 01:38:00,
2013-05-13 21:43:00,61.9,39.7,29.73,WNW,292,1.0,3.0,44,0.00,,,0.00,Weather View 32 v70,2013-05-14 01:43:00,
2013-05-13 21:48:00,61.9,40.3,29.73,WNW,292,1.0,3.0,45,0.00,,,0.00,Weather View 32 v70,2013-05-14 01:48:00,
2013-05-13 21:53:00,61.6,40.0,29.73,WNW,292,1.0,3.0,45,0.00,,,0.00,Weather View 32 v70,2013-05-14 01:53:00,
2013-05-13 21:58:00,61.0,40.6,29.74,WNW,292,0.0,3.0,47,0.00,,,0.00,Weather View 32 v70,2013-05-14 01:58:00,
2013-05-13 22:03:00,60.1,40.8,29.74,WNW,292,0.0,3.0,49,0.00,,,0.00,Weather View 32 v70,2013-05-14 02:03:00,
2013-05-13 22:08:00,59.4,41.7,29.74,WNW,292,2.0,2.0,52,0.00,,,0.00,Weather View 32 v70,2013-05-14 02:08:00,
2013-05-13 22:13:00,59.8,41.6,29.74,WNW,292,0.0,2.0,51,0.00,,,0.00,Weather View 32 v70,2013-05-14 02:13:00,
2013-05-13 22:18:00,59.4,41.7,29.74,WNW,292,0.0,2.0,52,0.00,,,0.00,Weather View 32 v70,2013-05-14 02:18:00,
2013-05-13 22:23:00,58.8,43.1,29.75,WNW,292,0.0,2.0,56,0.00,,,0.00,Weather View 32 v70,2013-05-14 02:23:00,
2013-05-13 22:28:00,58.2,43.5,29.75,WNW,292,0.0,2.0,58,0.00,,,0.00,Weather View 32 v70,2013-05-14 02:28:00,
2013-05-13 22:33:00,57.9,41.8,29.75,WNW,292,0.0,2.0,55,0.00,,,0.00,Weather View 32 v70,2013-05-14 02:33:00,
2013-05-13 22:38:00,57.9,41.3,29.75,WNW,292,0.0,2.0,54,0.00,,,0.00,Weather View 32 v70,2013-05-14 02:38:00,
2013-05-13 22:43:00,58.4,41.3,29.75,WNW,292,1.0,2.0,53,0.00,,,0.00,Weather View 32 v70,2013-05-14 02:43:00,
2013-05-13 22:48:00,59.5,40.3,29.75,WNW,292,1.0,2.0,49,0.00,,,0.00,Weather View 32 v70,2013-05-14 02:48:00,
2013-05-13 22:53:00,59.6,40.9,29.75,WNW,292,0.0,2.0,50,0.00,,,0.00,Weather View 32 v70,2013-05-14 02:53:00,
2013-05-13 22:58:00,58.9,42.7,29.75,WNW,292,0.0,2.0,55,0.00,,,0.00,Weather View 32 v70,2013-05-14 02:58:00,
2013-05-13 23:03:00,58.2,42.1,29.75,WNW,292,0.0,2.0,55,0.00,,,0.00,Weather View 32 v70,2013-05-14 03:03:00,
2013-05-13 23:08:00,57.7,41.1,29.75,WNW,292,0.0,2.0,54,0.00,,,0.00,Weather View 32 v70,2013-05-14 03:08:00,
2013-05-13 23:13:00,57.5,41.4,29.75,WNW,292,0.0,2.0,55,0.00,,,0.00,Weather View 32 v70,2013-05-14 03:13:00,
2013-05-13 23:18:00,57.3,42.2,29.75,WNW,292,0.0,2.0,57,0.00,,,0.00,Weather View 32 v70,2013-05-14 03:18:00,
2013-05-13 23:23:00,56.6,41.5,29.75,WNW,292,0.0,2.0,57,0.00,,,0.00,Weather View 32 v70,2013-05-14 03:23:00,
2013-05-13 23:28:00,57.0,41.9,29.75,WNW,292,1.0,2.0,57,0.00,,,0.00,Weather View 32 v70,2013-05-14 03:28:00,
2013-05-13 23:34:00,57.7,42.1,29.75,WNW,292,1.0,2.0,56,0.00,,,0.00,Weather View 32 v70,2013-05-14 03:34:00,
2013-05-13 23:38:00,57.9,40.8,29.75,WNW,292,1.0,2.0,53,0.00,,,0.00,Weather View 32 v70,2013-05-14 03:38:00,
2013-05-13 23:44:00,58.1,42.0,29.75,WNW,292,2.0,2.0,55,0.00,,,0.00,Weather View 32 v70,2013-05-14 03:44:00,
2013-05-13 23:49:00,58.2,42.1,29.75,WNW,292,1.0,2.0,55,0.00,,,0.00,Weather View 32 v70,2013-05-14 03:49:00,
2013-05-13 23:54:00,58.3,41.7,29.75,WNW,292,1.0,2.0,54,0.00,,,0.00,Weather View 32 v70,2013-05-14 03:54:00,
2013-05-13 23:59:00,58.3,41.2,29.75,WNW,292,0.0,2.0,53,0.00,,,0.00,Weather View 32 v70,2013-05-14 03:59:00,